createdAt,value
2018-02-02T00:01:37.711Z,23.12
2018-02-02T00:04:06.186Z,30.15
2018-02-02T00:06:34.579Z,24.48
2018-02-02T00:09:02.964Z,24.25
2018-02-02T00:11:31.697Z,22.52
2018-02-02T00:14:00.062Z,22.10
2018-02-02T00:16:28.444Z,31.85
2018-02-02T00:18:56.796Z,26.62
2018-02-02T00:21:25.197Z,27.95
2018-02-02T00:23:53.609Z,21.40
2018-02-02T00:26:22.012Z,20.90
2018-02-02T00:28:50.402Z,25.33
2018-02-02T00:31:18.774Z,17.52
2018-02-02T00:33:47.159Z,19.62
2018-02-02T00:36:15.838Z,21.62
2018-02-02T00:38:44.305Z,21.62
2018-02-02T00:41:12.701Z,19.12
2018-02-02T00:43:41.166Z,20.73
2018-02-02T00:46:09.561Z,28.90
2018-02-02T00:48:38.210Z,18.12
2018-02-02T00:51:12.086Z,22.05
2018-02-02T00:53:40.771Z,19.52
2018-02-02T00:56:09.154Z,21.92
2018-02-02T00:58:37.511Z,23.27
2018-02-02T01:01:05.874Z,18.60
2018-02-02T01:03:34.228Z,28.38
2018-02-02T01:06:02.687Z,24.83
2018-02-02T01:08:31.056Z,24.63
2018-02-02T01:10:59.451Z,18.70
2018-02-02T01:13:27.897Z,15.10
2018-02-02T01:15:56.279Z,14.00
2018-02-02T01:18:25.056Z,14.25
2018-02-02T01:20:53.428Z,13.57
2018-02-02T01:23:21.806Z,13.90
2018-02-02T01:25:50.199Z,11.93
2018-02-02T01:28:18.529Z,18.75
2018-02-02T01:30:46.992Z,18.42
2018-02-02T01:33:15.328Z,11.93
2018-02-02T01:35:43.687Z,14.60
2018-02-02T01:38:12.030Z,21.95
2018-02-02T01:40:40.377Z,13.90
2018-02-02T01:43:08.813Z,13.00
2018-02-02T01:45:37.186Z,14.45
2018-02-02T01:48:17.487Z,17.90
2018-02-02T01:50:45.871Z,20.40
2018-02-02T01:53:14.228Z,13.98
2018-02-02T01:55:42.694Z,21.45
2018-02-02T01:58:11.062Z,22.70
2018-02-02T02:00:39.456Z,14.35
2018-02-02T02:03:07.837Z,12.30
2018-02-02T02:05:36.487Z,18.20
2018-02-02T02:08:04.842Z,19.52
2018-02-02T02:10:33.220Z,14.38
2018-02-02T02:13:01.609Z,14.80
2018-02-02T02:15:30.082Z,16.20
2018-02-02T02:17:58.436Z,12.57
2018-02-02T02:20:26.946Z,17.30
2018-02-02T02:22:55.598Z,11.12
2018-02-02T02:25:23.950Z,17.40
2018-02-02T02:27:52.298Z,12.02
2018-02-02T02:30:20.687Z,23.20
2018-02-02T02:32:49.057Z,8.55
2018-02-02T02:35:18.474Z,11.85
2018-02-02T02:37:46.936Z,15.48
2018-02-02T02:40:15.311Z,13.60
2018-02-02T02:42:43.696Z,10.40
2018-02-02T02:45:12.105Z,11.25
2018-02-02T02:47:40.789Z,11.02
2018-02-02T02:50:09.180Z,13.68
2018-02-02T02:52:37.563Z,12.73
2018-02-02T02:55:05.984Z,16.02
2018-02-02T02:57:34.368Z,17.08
2018-02-02T03:00:03.053Z,17.65
2018-02-02T03:02:31.469Z,16.92
2018-02-02T03:04:59.940Z,14.48
2018-02-02T03:07:28.322Z,12.70
2018-02-02T03:09:56.708Z,9.60
2018-02-02T03:12:25.410Z,10.73
2018-02-02T03:14:53.784Z,12.85
2018-02-02T03:17:22.135Z,14.68
2018-02-02T03:19:50.529Z,11.43
2018-02-02T03:22:18.870Z,17.70
2018-02-02T03:24:47.302Z,10.52
2018-02-02T03:27:15.690Z,14.23
2018-02-02T03:29:44.037Z,14.82
2018-02-02T03:32:12.422Z,14.05
2018-02-02T03:34:40.764Z,14.95
2018-02-02T03:37:09.564Z,12.65
2018-02-02T03:39:37.897Z,17.23
2018-02-02T03:42:06.243Z,17.27
2018-02-02T03:44:34.597Z,13.80
2018-02-02T03:47:02.942Z,18.42
2018-02-02T03:49:31.675Z,17.08
2018-02-02T03:52:00.420Z,19.98
2018-02-02T03:54:28.870Z,21.25
2018-02-02T03:56:57.213Z,17.20
2018-02-02T03:59:25.553Z,14.00
2018-02-02T04:01:53.943Z,15.15
2018-02-02T04:04:22.303Z,18.00
2018-02-02T04:06:50.976Z,17.42
2018-02-02T04:09:19.326Z,15.43
2018-02-02T04:11:47.681Z,18.83
2018-02-02T04:14:16.055Z,14.13
2018-02-02T04:16:44.439Z,16.65
2018-02-02T04:19:13.117Z,14.15
2018-02-02T04:21:41.470Z,12.25
2018-02-02T04:24:09.859Z,14.57
2018-02-02T04:26:38.261Z,12.07
2018-02-02T04:29:06.656Z,18.67
2018-02-02T04:31:35.061Z,10.27
2018-02-02T04:34:03.427Z,11.65
2018-02-02T04:36:31.800Z,12.68
2018-02-02T04:39:00.190Z,14.68
2018-02-02T04:41:28.545Z,13.48
2018-02-02T04:43:56.957Z,15.70
2018-02-02T04:46:25.342Z,13.50
2018-02-02T04:48:53.694Z,12.27
2018-02-02T04:51:22.056Z,13.27
2018-02-02T04:53:50.407Z,12.88
2018-02-02T04:56:19.163Z,13.62
2018-02-02T04:58:47.518Z,11.68
2018-02-02T05:01:15.900Z,12.45
2018-02-02T05:03:44.264Z,12.45
2018-02-02T05:06:12.626Z,12.37
2018-02-02T05:08:41.297Z,10.43
2018-02-02T05:11:09.744Z,9.18
2018-02-02T05:13:38.092Z,8.02
2018-02-02T05:16:06.454Z,8.20
2018-02-02T05:18:34.795Z,9.05
2018-02-02T05:21:03.530Z,7.75
2018-02-02T05:23:31.882Z,8.40
2018-02-02T05:26:00.227Z,6.93
2018-02-02T05:28:28.577Z,7.57
2018-02-02T05:30:56.932Z,7.37
2018-02-02T05:33:25.659Z,8.82
2018-02-02T05:35:54.094Z,8.35
2018-02-02T05:38:22.438Z,7.70
2018-02-02T05:40:50.831Z,5.43
2018-02-02T05:43:19.195Z,9.23
2018-02-02T05:45:47.600Z,7.03
2018-02-02T05:48:15.969Z,5.53
2018-02-02T05:50:44.315Z,6.00
2018-02-02T05:53:12.673Z,7.28
2018-02-02T05:55:41.043Z,4.10
2018-02-02T05:58:09.457Z,7.50
2018-02-02T06:00:37.802Z,5.53
2018-02-02T06:03:06.194Z,3.80
2018-02-02T06:05:34.576Z,3.35
2018-02-02T06:08:02.928Z,3.70
2018-02-02T06:10:31.811Z,4.50
2018-02-02T06:13:00.188Z,7.72
2018-02-02T06:15:28.519Z,2.92
2018-02-02T06:17:56.878Z,3.78
2018-02-02T06:20:25.230Z,3.60
2018-02-02T06:22:53.737Z,3.60
2018-02-02T06:25:22.170Z,4.70
2018-02-02T06:27:50.538Z,3.22
2018-02-02T06:30:18.926Z,3.00
2018-02-02T06:32:47.279Z,3.70
2018-02-02T06:35:15.661Z,2.40
2018-02-02T06:37:44.071Z,2.42
2018-02-02T06:40:12.669Z,3.15
2018-02-02T06:42:41.046Z,2.67
2018-02-02T06:45:09.410Z,2.83
2018-02-02T06:47:37.754Z,3.17
2018-02-02T06:50:06.139Z,3.03
2018-02-02T06:52:34.888Z,3.62
2018-02-02T06:55:03.339Z,2.85
2018-02-02T06:57:31.679Z,2.67
2018-02-02T07:00:01.913Z,2.85
2018-02-02T07:02:30.544Z,2.62
2018-02-02T07:04:59.322Z,2.25
2018-02-02T07:07:27.696Z,2.78
2018-02-02T07:09:56.048Z,3.12
2018-02-02T07:12:24.422Z,2.65
2018-02-02T07:14:52.811Z,5.85
2018-02-02T07:17:21.270Z,3.30
2018-02-02T07:19:49.608Z,3.35
2018-02-02T07:22:17.986Z,2.90
2018-02-02T07:24:46.453Z,4.53
2018-02-02T07:27:14.850Z,3.95
2018-02-02T07:29:43.895Z,4.18
2018-02-02T07:32:12.272Z,3.05
2018-02-02T07:34:40.694Z,2.92
2018-02-02T07:37:09.072Z,3.08
2018-02-02T07:39:37.420Z,3.72
2018-02-02T07:42:06.153Z,3.20
2018-02-02T07:44:34.542Z,4.57
2018-02-02T07:47:03.014Z,4.20
2018-02-02T07:49:32.311Z,4.30
2018-02-02T07:52:00.724Z,6.05
2018-02-02T07:54:29.505Z,6.28
2018-02-02T07:56:57.895Z,4.28
2018-02-02T07:59:26.276Z,5.12
2018-02-02T08:01:55.655Z,5.95
2018-02-02T08:04:24.026Z,6.82
2018-02-02T08:06:52.495Z,5.53
2018-02-02T08:09:20.893Z,5.78
2018-02-02T08:11:49.383Z,12.32
2018-02-02T08:14:18.690Z,15.23
2018-02-02T08:16:47.104Z,9.98
2018-02-02T08:19:15.947Z,13.70
2018-02-02T08:21:44.339Z,10.13
2018-02-02T08:24:12.813Z,12.75
2018-02-02T08:26:41.212Z,14.10
2018-02-02T08:29:09.600Z,12.88
2018-02-02T08:31:38.298Z,12.50
2018-02-02T08:34:06.690Z,15.88
2018-02-02T08:36:35.105Z,12.00
2018-02-02T08:39:03.735Z,16.42
2018-02-02T08:41:32.099Z,9.20
2018-02-02T08:44:00.906Z,11.45
2018-02-02T08:46:29.275Z,11.55
2018-02-02T08:48:57.727Z,10.70
2018-02-02T08:51:26.116Z,13.85
2018-02-02T08:53:54.478Z,11.95
2018-02-02T08:56:23.054Z,17.12
2018-02-02T08:58:51.427Z,11.85
2018-02-02T09:01:25.523Z,9.32
2018-02-02T09:03:53.978Z,11.90
2018-02-02T09:06:22.447Z,20.67
2018-02-02T09:08:50.840Z,16.90
2018-02-02T09:11:19.293Z,12.48
2018-02-02T09:13:47.981Z,17.25
2018-02-02T09:16:16.461Z,16.25
2018-02-02T09:18:44.815Z,13.82
2018-02-02T09:21:13.208Z,12.57
2018-02-02T09:23:41.580Z,14.63
2018-02-02T09:26:10.302Z,10.73
2018-02-02T09:28:38.675Z,9.30
2018-02-02T09:31:07.074Z,13.45
2018-02-02T09:33:35.444Z,8.60
2018-02-02T09:36:03.828Z,8.63
2018-02-02T09:38:32.501Z,8.90
2018-02-02T09:41:00.900Z,8.13
2018-02-02T09:43:29.262Z,9.80
2018-02-02T09:45:57.626Z,9.68
2018-02-02T09:48:26.042Z,5.82
2018-02-02T09:50:54.820Z,7.03
2018-02-02T09:53:23.190Z,5.32
2018-02-02T09:55:51.586Z,6.80
2018-02-02T09:58:19.922Z,4.93
2018-02-02T10:00:48.309Z,8.25
2018-02-02T10:03:17.035Z,5.22
2018-02-02T10:05:45.422Z,5.37
2018-02-02T10:08:13.784Z,5.35
2018-02-02T10:10:42.175Z,3.47
2018-02-02T10:13:10.524Z,3.20
2018-02-02T10:15:38.871Z,3.15
2018-02-02T10:18:07.250Z,3.50
2018-02-02T10:20:35.916Z,3.87
2018-02-02T10:23:04.268Z,3.05
2018-02-02T10:25:32.639Z,3.83
2018-02-02T10:28:01.088Z,5.17
2018-02-02T10:30:29.467Z,3.33
2018-02-02T10:32:57.909Z,2.70
2018-02-02T10:35:26.276Z,5.32
2018-02-02T10:37:54.654Z,3.30
2018-02-02T10:40:23.044Z,3.00
2018-02-02T10:42:51.386Z,2.83
2018-02-02T10:45:20.137Z,2.92
2018-02-02T10:47:48.518Z,3.47
2018-02-02T10:50:16.878Z,2.53
2018-02-02T10:52:45.279Z,6.78
2018-02-02T10:55:13.640Z,4.03
2018-02-02T10:57:42.125Z,2.90
2018-02-02T11:00:10.484Z,3.72
2018-02-02T11:02:44.704Z,4.32
2018-02-02T11:05:13.054Z,3.07
2018-02-02T11:07:41.439Z,3.22
2018-02-02T11:10:09.835Z,2.67
2018-02-02T11:12:38.234Z,4.93
2018-02-02T11:15:06.684Z,3.00
2018-02-02T11:17:35.058Z,2.50
2018-02-02T11:20:03.506Z,3.75
2018-02-02T11:22:31.886Z,4.47
2018-02-02T11:25:00.252Z,3.05
2018-02-02T11:27:28.915Z,2.83
2018-02-02T11:29:57.367Z,3.13
2018-02-02T11:32:25.785Z,2.73
2018-02-02T11:34:54.133Z,2.80
2018-02-02T11:37:22.483Z,3.85
2018-02-02T11:39:51.261Z,2.65
2018-02-02T11:42:19.663Z,2.75
2018-02-02T11:44:48.140Z,2.50
2018-02-02T11:47:16.502Z,2.95
2018-02-02T11:49:44.855Z,2.80
2018-02-02T11:52:13.224Z,2.87
2018-02-02T11:54:41.591Z,2.90
2018-02-02T11:57:10.256Z,2.67
2018-02-02T11:59:38.596Z,2.87
2018-02-02T12:02:06.986Z,3.53
2018-02-02T12:04:35.335Z,2.83
2018-02-02T12:07:03.674Z,2.23
2018-02-02T12:09:32.355Z,2.20
2018-02-02T12:12:00.707Z,2.10
2018-02-02T12:14:29.080Z,2.50
2018-02-02T12:16:57.435Z,2.90
2018-02-02T12:19:25.852Z,6.40
2018-02-02T12:25:17.572Z,2.00
2018-02-02T12:27:51.565Z,2.27
2018-02-02T12:30:20.391Z,2.00
2018-02-02T12:32:53.260Z,3.20
2018-02-02T12:35:40.380Z,3.03
2018-02-02T12:38:08.720Z,2.83
2018-02-02T12:40:37.068Z,1.97
2018-02-02T12:43:05.500Z,1.90
2018-02-02T12:45:33.853Z,3.20
2018-02-02T12:48:03.050Z,1.92
2018-02-02T12:50:43.400Z,2.00
2018-02-02T12:53:11.893Z,1.80
2018-02-02T12:55:40.398Z,1.30
2018-02-02T12:58:08.785Z,1.80
2018-02-02T13:00:37.175Z,1.83
2018-02-02T13:03:05.688Z,2.20
2018-02-02T13:05:34.064Z,1.83
2018-02-02T13:08:02.505Z,2.07
2018-02-02T13:10:30.866Z,2.70
2018-02-02T13:12:59.348Z,1.47
2018-02-02T13:15:28.067Z,1.70
2018-02-02T13:17:56.534Z,2.07
2018-02-02T13:20:24.934Z,2.27
2018-02-02T13:22:53.301Z,1.90
2018-02-02T13:25:21.692Z,1.60
2018-02-02T13:27:50.435Z,2.40
2018-02-02T13:30:18.789Z,1.67
2018-02-02T13:32:47.157Z,1.93
2018-02-02T13:35:16.544Z,2.17
2018-02-02T13:37:44.931Z,2.03
2018-02-02T13:40:13.652Z,1.90
2018-02-02T13:42:42.134Z,2.50
2018-02-02T13:45:10.511Z,2.40
2018-02-02T13:47:38.913Z,2.80
2018-02-02T13:50:07.321Z,2.95
2018-02-02T13:52:36.070Z,2.95
2018-02-02T13:55:04.521Z,2.53
2018-02-02T13:57:33.078Z,2.95
2018-02-02T14:00:01.549Z,4.35
2018-02-02T14:02:29.944Z,5.97
2018-02-02T14:04:58.367Z,3.70
2018-02-02T14:07:26.769Z,3.50
2018-02-02T14:09:55.411Z,3.72
2018-02-02T14:12:23.870Z,3.50
2018-02-02T14:14:52.295Z,3.62
2018-02-02T14:17:20.697Z,3.80
2018-02-02T14:19:49.091Z,3.60
2018-02-02T14:22:17.616Z,3.65
2018-02-02T14:24:46.020Z,4.40
2018-02-02T14:27:14.456Z,4.30
2018-02-02T14:29:42.846Z,3.22
2018-02-02T14:32:11.308Z,3.50
2018-02-02T14:34:40.142Z,3.20
2018-02-02T14:37:08.540Z,3.87
2018-02-02T14:39:37.032Z,5.85
2018-02-02T14:42:05.429Z,3.60
2018-02-02T14:44:33.812Z,5.45
2018-02-02T14:47:02.242Z,6.18
2018-02-02T14:49:30.628Z,4.32
2018-02-02T14:51:59.048Z,5.43
2018-02-02T14:54:27.549Z,6.53
2018-02-02T14:56:56.010Z,6.05
2018-02-02T14:59:24.472Z,6.07
2018-02-02T15:01:52.866Z,6.35
2018-02-02T15:04:21.262Z,4.30
2018-02-02T15:06:49.650Z,4.22
2018-02-02T15:09:18.053Z,5.32
2018-02-02T15:11:46.749Z,6.00
2018-02-02T15:14:15.129Z,7.85
2018-02-02T15:16:43.513Z,5.15
2018-02-02T15:19:11.970Z,4.47
2018-02-02T15:21:40.342Z,3.95
2018-02-02T15:24:08.843Z,6.90
2018-02-02T15:26:37.242Z,3.55
2018-02-02T15:29:05.636Z,2.42
2018-02-02T15:31:34.017Z,3.12
2018-02-02T15:34:02.387Z,6.28
2018-02-02T15:36:30.844Z,9.82
2018-02-02T15:38:59.225Z,6.40
2018-02-02T15:41:27.949Z,3.87
2018-02-02T15:43:56.502Z,3.75
2018-02-02T15:46:24.910Z,6.00
2018-02-02T15:48:53.449Z,8.80
2018-02-02T15:51:21.843Z,5.95
2018-02-02T15:53:50.225Z,5.07
2018-02-02T15:56:18.610Z,6.28
2018-02-02T15:58:47.015Z,4.53
2018-02-02T16:01:15.541Z,5.07
2018-02-02T16:03:44.014Z,4.78
2018-02-02T16:06:12.406Z,3.67
2018-02-02T16:08:40.785Z,4.68
2018-02-02T16:11:09.183Z,4.85
2018-02-02T16:13:37.971Z,7.47
2018-02-02T16:16:06.439Z,12.30
2018-02-02T16:18:34.830Z,15.75
2018-02-02T16:21:03.197Z,17.20
2018-02-02T16:23:31.600Z,18.10
2018-02-02T16:26:00.263Z,17.73
2018-02-02T16:28:28.666Z,11.77
2018-02-02T16:30:57.085Z,17.48
2018-02-02T16:33:25.463Z,9.68
2018-02-02T16:35:53.947Z,8.00
2018-02-02T16:38:22.394Z,5.85
2018-02-02T16:40:50.894Z,8.38
2018-02-02T16:43:19.362Z,11.70
2018-02-02T16:45:47.845Z,6.80
2018-02-02T16:48:16.228Z,6.78
2018-02-02T16:50:45.092Z,9.55
2018-02-02T16:53:13.500Z,10.98
2018-02-02T16:55:41.888Z,12.10
2018-02-02T16:58:10.283Z,9.15
2018-02-02T17:00:38.676Z,11.63
2018-02-02T17:03:07.457Z,10.93
2018-02-02T17:05:35.852Z,8.48
2018-02-02T17:08:04.225Z,10.55
2018-02-02T17:10:32.600Z,11.80
2018-02-02T17:13:01.040Z,8.25
2018-02-02T17:15:29.806Z,6.53
2018-02-02T17:17:58.199Z,7.03
2018-02-02T17:20:26.590Z,11.88
2018-02-02T17:22:54.979Z,6.85
2018-02-02T17:25:23.366Z,8.73
2018-02-02T17:27:51.791Z,15.73
2018-02-02T17:30:20.187Z,9.18
2018-02-02T17:32:48.555Z,9.85
2018-02-02T17:35:16.937Z,18.42
2018-02-02T17:37:45.321Z,12.43
2018-02-02T17:40:14.027Z,14.90
2018-02-02T17:42:42.422Z,16.60
2018-02-02T17:45:10.833Z,11.55
2018-02-02T17:47:39.224Z,17.48
2018-02-02T17:50:07.631Z,22.05
2018-02-02T17:52:36.068Z,15.68
2018-02-02T17:55:04.544Z,16.42
2018-02-02T17:57:33.053Z,15.88
2018-02-02T18:00:01.505Z,18.00
2018-02-02T18:02:36.186Z,18.75
2018-02-02T18:05:04.684Z,21.73
2018-02-02T18:07:33.075Z,23.87
2018-02-02T18:10:01.834Z,19.10
2018-02-02T18:12:30.254Z,28.02
2018-02-02T18:14:58.653Z,24.42
2018-02-02T18:17:27.057Z,19.52
2018-02-02T18:19:55.527Z,28.83
2018-02-02T18:22:24.284Z,25.65
2018-02-02T18:24:52.669Z,26.70
2018-02-02T18:27:21.090Z,22.45
2018-02-02T18:29:49.475Z,23.48
2018-02-02T18:32:17.962Z,22.20
2018-02-02T18:34:46.370Z,26.25
2018-02-02T18:37:14.767Z,21.98
2018-02-02T18:39:43.211Z,23.25
2018-02-02T18:42:11.596Z,23.27
2018-02-02T18:44:39.999Z,29.87
2018-02-02T18:47:08.476Z,28.08
2018-02-02T18:49:36.879Z,27.92
2018-02-02T18:52:05.587Z,24.48
2018-02-02T18:54:34.092Z,19.62
2018-02-02T18:57:02.474Z,21.20
2018-02-02T18:59:30.868Z,16.35
2018-02-02T19:01:59.272Z,14.30
2018-02-02T19:04:28.023Z,15.55
2018-02-02T19:06:56.401Z,12.18
2018-02-02T19:09:24.835Z,12.40
2018-02-02T19:11:53.294Z,13.00
2018-02-02T19:14:21.693Z,18.05
2018-02-02T19:16:50.137Z,23.52
2018-02-02T19:19:18.539Z,18.20
2018-02-02T19:21:47.016Z,17.92
2018-02-02T19:24:15.421Z,20.77
2018-02-02T19:26:43.831Z,15.52
2018-02-02T19:29:12.582Z,25.25
2018-02-02T19:31:40.960Z,26.67
2018-02-02T19:34:09.356Z,38.58
2018-02-02T19:36:37.776Z,34.75
2018-02-02T19:39:06.174Z,40.72
2018-02-02T19:41:34.897Z,25.25
2018-02-02T19:44:03.316Z,30.02
2018-02-02T19:46:31.694Z,25.67
2018-02-02T19:49:00.082Z,58.63
2018-02-02T19:51:28.482Z,39.70
2018-02-02T19:53:57.208Z,30.10
2018-02-02T19:56:25.586Z,41.97
2018-02-02T19:58:53.992Z,27.75
2018-02-02T20:01:22.402Z,40.58
2018-02-02T20:03:50.791Z,28.90
2018-02-02T20:06:19.502Z,29.98
2018-02-02T20:08:47.890Z,24.95
2018-02-02T20:11:16.289Z,38.17
2018-02-02T20:13:44.779Z,28.40
2018-02-02T20:16:13.169Z,34.85
2018-02-02T20:18:42.117Z,32.08
2018-02-02T20:21:10.515Z,39.72
2018-02-02T20:23:38.956Z,36.53
2018-02-02T20:26:07.337Z,36.75
2018-02-02T20:28:35.747Z,36.40
2018-02-02T20:31:04.138Z,40.83
2018-02-02T20:33:33.015Z,38.67
2018-02-02T20:36:01.822Z,36.28
2018-02-02T20:38:30.235Z,38.05
2018-02-02T20:40:58.637Z,35.03
2018-02-02T20:43:27.035Z,44.55
2018-02-02T20:45:55.436Z,35.33
2018-02-02T20:48:24.135Z,33.30
2018-02-02T20:50:52.547Z,35.33
2018-02-02T20:53:20.930Z,32.38
2018-02-02T20:55:49.330Z,61.37
2018-02-02T20:58:17.755Z,39.42
2018-02-02T21:00:46.468Z,38.08
2018-02-02T21:03:14.955Z,35.67
2018-02-02T21:05:43.367Z,36.40
2018-02-02T21:08:11.763Z,37.10
2018-02-02T21:10:40.165Z,33.47
2018-02-02T21:13:08.689Z,31.95
2018-02-02T21:15:37.079Z,29.42
2018-02-02T21:18:05.578Z,34.58
2018-02-02T21:20:33.984Z,29.12
2018-02-02T21:23:02.380Z,35.80
2018-02-02T21:25:30.799Z,37.38
2018-02-02T21:27:59.191Z,31.42
2018-02-02T21:30:27.847Z,33.38
2018-02-02T21:32:56.250Z,37.28
2018-02-02T21:35:24.640Z,31.10
2018-02-02T21:37:53.169Z,32.70
2018-02-02T21:40:21.551Z,36.67
2018-02-02T21:42:50.349Z,35.42
2018-02-02T21:45:18.882Z,34.88
2018-02-02T21:47:47.307Z,40.88
2018-02-02T21:50:15.716Z,26.35
2018-02-02T21:52:44.094Z,28.87
2018-02-02T21:55:12.546Z,27.85
2018-02-02T21:57:40.929Z,29.73
2018-02-02T22:00:09.359Z,32.80
2018-02-02T22:02:37.787Z,31.95
2018-02-02T22:05:06.618Z,33.22
2018-02-02T22:07:35.126Z,38.10
2018-02-02T22:10:03.960Z,36.03
2018-02-02T22:12:32.463Z,40.85
2018-02-02T22:15:00.865Z,36.40
2018-02-02T22:17:29.257Z,41.58
2018-02-02T22:19:57.958Z,39.78
2018-02-02T22:22:26.425Z,42.03
2018-02-02T22:24:55.010Z,47.05
2018-02-02T22:27:23.437Z,43.17
2018-02-02T22:29:51.831Z,41.45
2018-02-02T22:32:20.233Z,45.05
2018-02-02T22:34:48.623Z,45.92
2018-02-02T22:37:17.145Z,47.75
2018-02-02T22:39:45.533Z,40.30
2018-02-02T22:42:13.935Z,45.20
2018-02-02T22:44:42.298Z,53.00
2018-02-02T22:47:10.695Z,42.15
2018-02-02T22:49:39.402Z,38.58
2018-02-02T22:52:07.802Z,37.30
2018-02-02T22:54:36.253Z,36.83
2018-02-02T22:57:04.713Z,50.70
2018-02-02T22:59:33.110Z,38.28
2018-02-02T23:02:01.545Z,34.00
2018-02-02T23:04:29.944Z,27.83
2018-02-02T23:06:58.340Z,20.37
2018-02-02T23:09:27.023Z,19.70
2018-02-02T23:11:55.426Z,20.60
2018-02-02T23:14:24.074Z,21.75
2018-02-02T23:16:52.464Z,21.98
2018-02-02T23:19:20.891Z,25.67
2018-02-02T23:21:49.279Z,24.58
2018-02-02T23:24:17.657Z,25.30
2018-02-02T23:26:46.042Z,28.77
2018-02-02T23:29:14.426Z,28.17
2018-02-02T23:31:42.955Z,30.45
2018-02-02T23:34:11.348Z,34.25
2018-02-02T23:36:39.831Z,34.55
2018-02-02T23:39:08.216Z,32.17
2018-02-02T23:41:36.607Z,40.08
2018-02-02T23:44:05.054Z,39.65
2018-02-02T23:46:33.424Z,33.35
2018-02-02T23:49:01.828Z,22.58
2018-02-02T23:51:30.337Z,22.00
2018-02-02T23:53:58.694Z,26.52
2018-02-02T23:56:27.472Z,28.00
2018-02-02T23:58:55.853Z,34.90
